Time;durP1;ratioP1;P1;durP2;ratioP2;P2;SDS_P1;SDS_P2;PMS_P1;PMS_P2;Temp;Humidity;BMP_temperature;BMP_pressure;BME280_temperature;BME280_humidity;BME280_pressure;Samples;Min_cycle;Max_cycle;Signal;HPM_P1;HPM_P2
2022/03/02 00:00:55;;;;;;;23.15;12.77;;;;;;;;;;5047098;28;20040;-82
2022/03/02 00:03:21;;;;;;;22.10;12.73;;;;;;;;;;5046788;28;20040;-83
2022/03/02 00:05:47;;;;;;;26.63;12.40;;;;;;;;;;5047119;28;20033;-83
2022/03/02 00:08:13;;;;;;;24.80;12.32;;;;;;;;;;5063043;28;20051;-82
2022/03/02 00:10:41;;;;;;;22.20;11.93;;;;;;;;;;5063464;28;20032;-82
2022/03/02 00:13:10;;;;;;;25.27;12.23;;;;;;;;;;5048804;28;20032;-83
2022/03/02 00:15:36;;;;;;;27.05;12.93;;;;;;;;;;5065522;28;20052;-81
2022/03/02 00:18:02;;;;;;;23.67;12.55;;;;;;;;;;5068317;28;20036;-83
2022/03/02 00:20:28;;;;;;;27.30;14.52;;;;;;;;;;5047005;28;20043;-84
2022/03/02 00:22:55;;;;;;;24.02;13.13;;;;;;;;;;5063595;28;20036;-82
2022/03/02 00:25:21;;;;;;;23.13;12.80;;;;;;;;;;5046596;28;20044;-81
2022/03/02 00:27:47;;;;;;;27.17;12.85;;;;;;;;;;5063643;28;20028;-82
2022/03/02 00:30:13;;;;;;;25.23;12.88;;;;;;;;;;5080666;28;20099;-82
2022/03/02 00:32:40;;;;;;;25.85;13.57;;;;;;;;;;5046113;28;20484;-83
2022/03/02 00:35:06;;;;;;;31.58;14.00;;;;;;;;;;5062758;28;20356;-82
2022/03/02 00:37:32;;;;;;;27.50;14.38;;;;;;;;;;5046512;28;20353;-82
2022/03/02 00:39:58;;;;;;;26.25;13.80;;;;;;;;;;5046049;28;20036;-82
2022/03/02 00:42:24;;;;;;;26.23;12.90;;;;;;;;;;5062558;28;20059;-82
2022/03/02 00:44:50;;;;;;;25.40;13.70;;;;;;;;;;5062507;28;20139;-82
2022/03/02 00:47:16;;;;;;;24.52;12.57;;;;;;;;;;5063402;28;20045;-81
2022/03/02 00:49:42;;;;;;;26.73;13.00;;;;;;;;;;5063602;28;20051;-81
2022/03/02 00:52:11;;;;;;;25.35;13.57;;;;;;;;;;5046902;28;20072;-82
2022/03/02 00:54:37;;;;;;;24.83;13.57;;;;;;;;;;5048082;28;20051;-81
2022/03/02 00:57:03;;;;;;;25.73;12.52;;;;;;;;;;5047525;28;20068;-82
2022/03/02 00:59:29;;;;;;;25.23;13.05;;;;;;;;;;5065015;28;20449;-83
2022/03/02 01:01:55;;;;;;;24.13;12.32;;;;;;;;;;5064662;28;20475;-83
2022/03/02 01:04:21;;;;;;;22.38;12.40;;;;;;;;;;5064572;28;20105;-83
2022/03/02 01:06:47;;;;;;;25.27;12.80;;;;;;;;;;5065264;28;20063;-83
2022/03/02 01:09:13;;;;;;;22.88;12.48;;;;;;;;;;5085708;28;20044;-81
2022/03/02 01:11:39;;;;;;;25.13;12.18;;;;;;;;;;5063558;28;20034;-81
2022/03/02 01:14:05;;;;;;;26.30;12.35;;;;;;;;;;5062338;28;20074;-81
2022/03/02 01:16:32;;;;;;;21.98;12.18;;;;;;;;;;5046276;28;20075;-83
2022/03/02 01:18:58;;;;;;;24.75;13.07;;;;;;;;;;5062559;28;20036;-82
2022/03/02 01:21:26;;;;;;;23.25;12.88;;;;;;;;;;5046279;28;20084;-82
2022/03/02 01:23:56;;;;;;;25.67;12.80;;;;;;;;;;5068633;28;20475;-84
2022/03/02 01:26:24;;;;;;;21.15;11.80;;;;;;;;;;5046681;28;20467;-83
2022/03/02 01:28:50;;;;;;;24.52;12.20;;;;;;;;;;5045810;28;20093;-84
2022/03/02 01:31:16;;;;;;;25.00;12.70;;;;;;;;;;5063337;28;20037;-83
2022/03/02 01:33:42;;;;;;;23.42;12.25;;;;;;;;;;5063396;28;20043;-84
2022/03/02 01:36:08;;;;;;;24.75;12.32;;;;;;;;;;5063259;28;20169;-85
2022/03/02 01:38:34;;;;;;;23.20;11.82;;;;;;;;;;5062526;28;20060;-82
2022/03/02 01:41:00;;;;;;;23.15;11.98;;;;;;;;;;5079567;28;20068;-82
2022/03/02 01:43:28;;;;;;;22.65;11.82;;;;;;;;;;5045663;28;20059;-84
2022/03/02 01:45:54;;;;;;;24.23;12.05;;;;;;;;;;5062201;28;20040;-83
2022/03/02 01:48:20;;;;;;;25.83;12.27;;;;;;;;;;5046251;28;20044;-83
2022/03/02 01:50:46;;;;;;;24.75;12.00;;;;;;;;;;5045768;28;20134;-84
2022/03/02 01:53:12;;;;;;;22.02;12.20;;;;;;;;;;5045578;28;20139;-83
2022/03/02 01:55:38;;;;;;;23.60;12.52;;;;;;;;;;5045978;28;20483;-83
2022/03/02 01:58:04;;;;;;;23.60;12.18;;;;;;;;;;5045183;28;20029;-82
2022/03/02 02:00:30;;;;;;;22.92;12.15;;;;;;;;;;5045919;28;20064;-83
2022/03/02 02:02:57;;;;;;;21.48;11.35;;;;;;;;;;5046156;28;20052;-82
2022/03/02 02:05:23;;;;;;;21.38;12.02;;;;;;;;;;5068719;28;20075;-82
2022/03/02 02:07:49;;;;;;;22.80;11.98;;;;;;;;;;5051331;28;20066;-82
2022/03/02 02:10:15;;;;;;;27.15;12.82;;;;;;;;;;5066576;28;20036;-83
2022/03/02 02:12:41;;;;;;;25.45;12.30;;;;;;;;;;5049865;28;20048;-83
2022/03/02 02:15:09;;;;;;;21.98;12.23;;;;;;;;;;5067003;28;20040;-83
2022/03/02 02:17:35;;;;;;;24.65;12.85;;;;;;;;;;5050371;28;20043;-83
2022/03/02 02:20:01;;;;;;;22.67;12.68;;;;;;;;;;5066878;28;20038;-83
2022/03/02 02:22:27;;;;;;;25.48;13.25;;;;;;;;;;5050071;28;20041;-84
2022/03/02 02:24:53;;;;;;;26.88;13.57;;;;;;;;;;5050458;28;20048;-82
2022/03/02 02:27:19;;;;;;;26.50;14.25;;;;;;;;;;5050073;28;20452;-80
2022/03/02 02:29:45;;;;;;;21.08;12.57;;;;;;;;;;5070811;28;20033;-82
2022/03/02 02:32:11;;;;;;;26.10;12.98;;;;;;;;;;5050176;28;20448;-83
2022/03/02 02:34:37;;;;;;;26.67;13.90;;;;;;;;;;5052932;28;20127;-83
2022/03/02 02:37:05;;;;;;;27.45;13.23;;;;;;;;;;5057675;28;20111;-83
2022/03/02 02:39:31;;;;;;;23.92;13.40;;;;;;;;;;5054997;28;20041;-84
2022/03/02 02:42:04;;;;;;;29.52;13.68;;;;;;;;;;5066152;28;20037;-84
2022/03/02 02:44:30;;;;;;;24.10;13.38;;;;;;;;;;5034273;28;20049;-83
2022/03/02 02:46:56;;;;;;;24.73;12.40;;;;;;;;;;5051106;28;20044;-82
2022/03/02 02:49:23;;;;;;;25.75;13.35;;;;;;;;;;5039135;28;20041;-82
2022/03/02 02:51:48;;;;;;;24.98;13.35;;;;;;;;;;5055757;28;20052;-81
2022/03/02 02:54:14;;;;;;;25.75;13.80;;;;;;;;;;5054589;28;20049;-82
2022/03/02 02:56:40;;;;;;;24.45;12.90;;;;;;;;;;5055347;28;20044;-81
2022/03/02 02:59:07;;;;;;;24.50;13.40;;;;;;;;;;5037180;28;20037;-81
2022/03/02 03:01:33;;;;;;;24.55;13.57;;;;;;;;;;5058917;28;20072;-82
2022/03/02 03:03:58;;;;;;;26.75;13.27;;;;;;;;;;5058242;28;20105;-81
2022/03/02 03:06:24;;;;;;;24.13;13.70;;;;;;;;;;5046704;28;20055;-84
2022/03/02 03:08:50;;;;;;;25.35;13.45;;;;;;;;;;5027121;28;20063;-84
2022/03/02 03:11:17;;;;;;;27.10;13.75;;;;;;;;;;5025985;28;20049;-84
2022/03/02 03:13:43;;;;;;;23.60;13.20;;;;;;;;;;5042070;28;20487;-83
2022/03/02 03:16:09;;;;;;;24.23;13.32;;;;;;;;;;5025327;28;20041;-84
2022/03/02 03:18:35;;;;;;;26.75;13.13;;;;;;;;;;5025756;28;20033;-83
2022/03/02 03:21:02;;;;;;;29.20;14.07;;;;;;;;;;5041127;28;20073;-83
2022/03/02 03:23:28;;;;;;;23.60;12.95;;;;;;;;;;5040597;28;20041;-82
2022/03/02 03:25:54;;;;;;;25.83;13.63;;;;;;;;;;5041091;28;20136;-84
2022/03/02 03:28:20;;;;;;;27.20;13.55;;;;;;;;;;5040188;28;20077;-82
2022/03/02 03:30:46;;;;;;;28.65;14.07;;;;;;;;;;5024509;28;20541;-82
2022/03/02 03:33:12;;;;;;;25.52;14.35;;;;;;;;;;5026025;28;20045;-82
2022/03/02 03:35:38;;;;;;;25.13;13.57;;;;;;;;;;5032078;28;20109;-83
2022/03/02 03:38:04;;;;;;;28.40;13.85;;;;;;;;;;5042846;28;20065;-83
2022/03/02 03:40:30;;;;;;;25.20;13.80;;;;;;;;;;5025135;28;20072;-84
2022/03/02 03:42:56;;;;;;;29.30;14.27;;;;;;;;;;5024732;28;20469;-84
2022/03/02 03:45:22;;;;;;;27.45;14.25;;;;;;;;;;5079478;28;20111;-84
2022/03/02 03:47:48;;;;;;;25.70;13.60;;;;;;;;;;5064941;28;20396;-82
2022/03/02 03:50:14;;;;;;;24.60;13.73;;;;;;;;;;5065952;28;20452;-84
2022/03/02 03:52:40;;;;;;;25.20;13.88;;;;;;;;;;5048419;28;20090;-83
2022/03/02 03:55:11;;;;;;;27.20;14.52;;;;;;;;;;5065883;28;20052;-83
2022/03/02 03:57:37;;;;;;;29.10;14.15;;;;;;;;;;5048435;28;20036;-82
2022/03/02 04:00:13;;;;;;;28.33;14.15;;;;;;;;;;5050307;28;20036;-82
2022/03/02 04:02:39;;;;;;;26.40;13.88;;;;;;;;;;5068662;28;20036;-83
2022/03/02 04:05:05;;;;;;;25.35;13.68;;;;;;;;;;5054902;28;20040;-81
2022/03/02 04:07:31;;;;;;;27.25;14.50;;;;;;;;;;5071734;28;20127;-82
2022/03/02 04:09:57;;;;;;;28.90;14.27;;;;;;;;;;5055917;28;20041;-82
2022/03/02 04:12:23;;;;;;;28.20;14.35;;;;;;;;;;5055639;28;20058;-82
2022/03/02 04:14:49;;;;;;;26.88;13.57;;;;;;;;;;5072854;28;20106;-81
2022/03/02 04:17:15;;;;;;;26.85;14.15;;;;;;;;;;5072813;28;20056;-82
2022/03/02 04:19:41;;;;;;;27.02;14.35;;;;;;;;;;5073483;28;20069;-81
2022/03/02 04:22:07;;;;;;;27.58;14.23;;;;;;;;;;5070939;28;20036;-79
2022/03/02 04:24:33;;;;;;;28.10;14.52;;;;;;;;;;5075060;28;20097;-80
2022/03/02 04:26:59;;;;;;;28.83;14.25;;;;;;;;;;5060867;28;20040;-79
2022/03/02 04:29:25;;;;;;;26.00;14.07;;;;;;;;;;5077936;28;20040;-82
2022/03/02 04:31:51;;;;;;;29.00;14.52;;;;;;;;;;5064233;28;20071;-83
2022/03/02 04:34:17;;;;;;;26.98;14.63;;;;;;;;;;5047175;28;20040;-83
2022/03/02 04:36:43;;;;;;;28.60;15.18;;;;;;;;;;5047827;28;20375;-81
2022/03/02 04:39:09;;;;;;;27.92;14.90;;;;;;;;;;5081147;28;20174;-81
2022/03/02 04:41:35;;;;;;;26.00;14.82;;;;;;;;;;5051857;28;20043;-83
2022/03/02 04:44:01;;;;;;;30.38;14.95;;;;;;;;;;5063417;28;20059;-84
2022/03/02 04:46:27;;;;;;;26.60;14.43;;;;;;;;;;5046963;28;20033;-82
2022/03/02 04:48:53;;;;;;;25.90;13.85;;;;;;;;;;5047169;28;20036;-82
2022/03/02 04:51:19;;;;;;;26.55;13.40;;;;;;;;;;5047230;28;20105;-82
2022/03/02 04:53:45;;;;;;;29.25;14.25;;;;;;;;;;5046846;28;20108;-81
2022/03/02 04:56:11;;;;;;;23.92;13.65;;;;;;;;;;5063381;28;20158;-82
2022/03/02 04:58:37;;;;;;;28.50;13.85;;;;;;;;;;5047046;28;20450;-83
2022/03/02 05:01:04;;;;;;;24.70;14.43;;;;;;;;;;5048124;28;20531;-83
2022/03/02 05:03:30;;;;;;;26.15;14.50;;;;;;;;;;5082071;28;20376;-81
2022/03/02 05:05:56;;;;;;;25.83;13.88;;;;;;;;;;5047302;28;20041;-82
2022/03/02 05:08:22;;;;;;;26.20;14.18;;;;;;;;;;5047614;28;20036;-82
2022/03/02 05:10:48;;;;;;;27.40;14.25;;;;;;;;;;5047748;28;20479;-83
2022/03/02 05:13:14;;;;;;;29.45;15.40;;;;;;;;;;5081720;28;20029;-83
2022/03/02 05:15:40;;;;;;;28.08;13.88;;;;;;;;;;5050476;28;20445;-82
2022/03/02 05:18:06;;;;;;;32.78;15.05;;;;;;;;;;5050169;28;20059;-82
2022/03/02 05:20:32;;;;;;;27.83;15.50;;;;;;;;;;5049050;28;20039;-83
2022/03/02 05:22:58;;;;;;;27.33;15.30;;;;;;;;;;5087579;28;20036;-83
2022/03/02 05:25:24;;;;;;;28.60;15.25;;;;;;;;;;5048302;28;20109;-81
2022/03/02 05:27:51;;;;;;;30.15;15.15;;;;;;;;;;5064346;28;20094;-81
2022/03/02 05:30:17;;;;;;;26.02;14.23;;;;;;;;;;5047657;28;20124;-82
2022/03/02 05:32:43;;;;;;;27.90;14.57;;;;;;;;;;5048135;28;20044;-82
2022/03/02 05:35:09;;;;;;;27.60;15.25;;;;;;;;;;5062805;28;20373;-80
2022/03/02 05:37:35;;;;;;;27.77;14.45;;;;;;;;;;5063355;28;20059;-81
2022/03/02 05:40:02;;;;;;;31.33;14.05;;;;;;;;;;5051053;28;20175;-82
2022/03/02 05:42:28;;;;;;;28.80;14.93;;;;;;;;;;5050423;28;20088;-81
2022/03/02 05:44:54;;;;;;;27.17;14.25;;;;;;;;;;5067694;28;20079;-82
2022/03/02 05:47:20;;;;;;;31.75;15.05;;;;;;;;;;5069543;28;20044;-82
2022/03/02 05:49:46;;;;;;;29.80;15.70;;;;;;;;;;5053659;28;20051;-82
2022/03/02 05:52:12;;;;;;;26.42;14.52;;;;;;;;;;5057179;28;20036;-83
2022/03/02 05:54:41;;;;;;;29.80;14.80;;;;;;;;;;5075589;28;20044;-82
2022/03/02 05:57:07;;;;;;;32.45;15.65;;;;;;;;;;5076396;28;20040;-82
2022/03/02 05:59:33;;;;;;;34.50;17.00;;;;;;;;;;5064096;28;20104;-82
2022/03/02 06:01:59;;;;;;;36.47;16.30;;;;;;;;;;5061692;28;20048;-82
2022/03/02 06:04:25;;;;;;;33.67;16.10;;;;;;;;;;5054383;28;20051;-82
2022/03/02 06:06:51;;;;;;;34.95;16.95;;;;;;;;;;5052592;28;20033;-82
2022/03/02 06:09:17;;;;;;;35.78;16.20;;;;;;;;;;5068301;28;20100;-81
2022/03/02 06:11:43;;;;;;;34.20;15.90;;;;;;;;;;5068234;28;20052;-81
2022/03/02 06:14:10;;;;;;;33.78;16.42;;;;;;;;;;5072463;28;20044;-80
2022/03/02 06:16:36;;;;;;;38.22;17.10;;;;;;;;;;5075080;28;20040;-80
2022/03/02 06:19:02;;;;;;;42.13;16.77;;;;;;;;;;5067457;28;20123;-82
2022/03/02 06:21:28;;;;;;;37.42;16.58;;;;;;;;;;5066146;28;20044;-82
2022/03/02 06:23:55;;;;;;;40.33;17.67;;;;;;;;;;5073377;28;20068;-80
2022/03/02 06:26:22;;;;;;;37.03;16.52;;;;;;;;;;5055910;28;20051;-81
2022/03/02 06:28:48;;;;;;;40.10;18.27;;;;;;;;;;5074544;28;20032;-82
2022/03/02 06:31:14;;;;;;;36.42;17.33;;;;;;;;;;5073719;28;20075;-81
2022/03/02 06:33:40;;;;;;;37.97;16.80;;;;;;;;;;5056106;28;20040;-80
2022/03/02 06:36:06;;;;;;;38.30;17.65;;;;;;;;;;5073906;28;20470;-80
2022/03/02 06:38:32;;;;;;;37.30;16.05;;;;;;;;;;5076861;28;20040;-82
2022/03/02 06:41:05;;;;;;;37.83;16.85;;;;;;;;;;5077374;28;20033;-80
2022/03/02 06:43:35;;;;;;;42.45;17.23;;;;;;;;;;5053465;28;20485;-80
2022/03/02 06:46:05;;;;;;;40.80;18.13;;;;;;;;;;5051044;28;20480;-80
2022/03/02 06:48:36;;;;;;;35.10;17.90;;;;;;;;;;5034748;28;20055;-79
2022/03/02 06:51:02;;;;;;;38.38;17.52;;;;;;;;;;5034022;28;20048;-79
2022/03/02 06:53:31;;;;;;;41.13;18.17;;;;;;;;;;5050934;28;20361;-81
2022/03/02 06:55:58;;;;;;;41.53;17.88;;;;;;;;;;5047726;28;20045;-84
2022/03/02 06:58:24;;;;;;;43.35;18.00;;;;;;;;;;5031858;28;20067;-79
2022/03/02 07:00:52;;;;;;;40.65;17.67;;;;;;;;;;5034283;28;20041;-79
2022/03/02 07:03:18;;;;;;;34.63;16.75;;;;;;;;;;5049144;28;20037;-82
2022/03/02 07:05:46;;;;;;;38.30;17.65;;;;;;;;;;5050911;28;20041;-82
2022/03/02 07:08:13;;;;;;;39.00;17.15;;;;;;;;;;5051118;28;20130;-80
2022/03/02 07:10:39;;;;;;;39.75;17.45;;;;;;;;;;5024166;28;20051;-79
2022/03/02 07:13:05;;;;;;;36.45;16.50;;;;;;;;;;5024078;28;20083;-80
2022/03/02 07:15:31;;;;;;;33.67;16.77;;;;;;;;;;5023538;28;20076;-80
2022/03/02 07:18:02;;;;;;;34.42;16.45;;;;;;;;;;5022498;28;20046;-80
2022/03/02 07:20:28;;;;;;;33.65;17.27;;;;;;;;;;5039463;28;20829;-79
2022/03/02 07:22:54;;;;;;;36.90;16.13;;;;;;;;;;5039915;28;20433;-80
2022/03/02 07:25:21;;;;;;;33.92;16.33;;;;;;;;;;5040328;28;20069;-80
2022/03/02 07:27:49;;;;;;;31.45;15.25;;;;;;;;;;5040087;28;20037;-80
2022/03/02 07:30:15;;;;;;;31.25;16.10;;;;;;;;;;5023137;28;20072;-80
2022/03/02 07:32:42;;;;;;;29.58;16.38;;;;;;;;;;5040454;28;20037;-79
2022/03/02 07:35:08;;;;;;;31.35;16.00;;;;;;;;;;5026777;28;20041;-79
2022/03/02 07:37:34;;;;;;;30.63;15.40;;;;;;;;;;5027283;28;20052;-81
2022/03/02 07:40:00;;;;;;;27.42;15.07;;;;;;;;;;5023795;28;20049;-80
2022/03/02 07:42:27;;;;;;;29.45;15.98;;;;;;;;;;5023393;28;20140;-81
2022/03/02 07:44:53;;;;;;;31.58;15.20;;;;;;;;;;5023925;28;20053;-81
2022/03/02 07:47:19;;;;;;;27.25;15.93;;;;;;;;;;5024235;28;20056;-81
2022/03/02 07:49:46;;;;;;;33.72;16.38;;;;;;;;;;5041548;28;20041;-81
2022/03/02 07:52:13;;;;;;;30.85;15.55;;;;;;;;;;5039852;28;20469;-81
2022/03/02 07:54:40;;;;;;;28.30;15.75;;;;;;;;;;5040413;28;20045;-81
2022/03/02 07:57:11;;;;;;;37.33;16.30;;;;;;;;;;5040652;28;20034;-81
2022/03/02 07:59:38;;;;;;;35.05;16.13;;;;;;;;;;5039801;28;20133;-81
2022/03/02 08:02:04;;;;;;;29.55;15.70;;;;;;;;;;5023071;28;20113;-80
2022/03/02 08:04:31;;;;;;;29.02;15.10;;;;;;;;;;5025815;28;20049;-81
2022/03/02 08:06:57;;;;;;;28.10;14.65;;;;;;;;;;5037189;28;20025;-79
2022/03/02 08:09:23;;;;;;;29.73;15.18;;;;;;;;;;5059480;28;20032;-80
2022/03/02 08:11:49;;;;;;;36.13;16.02;;;;;;;;;;5042635;28;20046;-79
2022/03/02 08:14:18;;;;;;;31.77;15.18;;;;;;;;;;5036519;28;20072;-80
2022/03/02 08:16:44;;;;;;;29.65;15.85;;;;;;;;;;5037066;28;20063;-79
2022/03/02 08:19:11;;;;;;;34.80;16.65;;;;;;;;;;5051187;28;20192;-80
2022/03/02 08:21:37;;;;;;;28.02;15.82;;;;;;;;;;5039570;28;20108;-80
2022/03/02 08:24:04;;;;;;;30.95;16.05;;;;;;;;;;5028639;28;20048;-80
2022/03/02 08:26:32;;;;;;;29.20;16.33;;;;;;;;;;5032291;28;20037;-80
2022/03/02 08:28:58;;;;;;;29.08;16.20;;;;;;;;;;5033997;28;20041;-80
2022/03/02 08:31:24;;;;;;;31.05;16.33;;;;;;;;;;5051253;28;20041;-80
2022/03/02 08:33:51;;;;;;;33.40;15.93;;;;;;;;;;5054394;28;20041;-81
2022/03/02 08:36:17;;;;;;;29.85;15.85;;;;;;;;;;5037282;28;20033;-81
2022/03/02 08:38:44;;;;;;;28.73;15.25;;;;;;;;;;5053473;28;20121;-80
2022/03/02 08:41:10;;;;;;;32.15;16.42;;;;;;;;;;5036200;28;20097;-82
2022/03/02 08:43:36;;;;;;;31.25;16.27;;;;;;;;;;5033489;28;20072;-82
2022/03/02 08:46:03;;;;;;;30.63;16.40;;;;;;;;;;5040329;28;20041;-83
2022/03/02 08:48:29;;;;;;;29.77;16.55;;;;;;;;;;5022948;28;20042;-83
2022/03/02 08:50:55;;;;;;;29.58;16.83;;;;;;;;;;5022881;28;20049;-83
2022/03/02 08:53:21;;;;;;;28.35;15.93;;;;;;;;;;5039029;28;20073;-83
2022/03/02 08:55:47;;;;;;;30.60;16.90;;;;;;;;;;5022212;28;20095;-83
2022/03/02 08:58:13;;;;;;;28.35;16.13;;;;;;;;;;5023081;28;20057;-82
2022/03/02 09:00:40;;;;;;;32.63;15.80;;;;;;;;;;5022586;28;20369;-82
2022/03/02 09:03:06;;;;;;;28.35;15.60;;;;;;;;;;5022640;28;20034;-83
2022/03/02 09:05:32;;;;;;;35.55;16.45;;;;;;;;;;5038962;28;20049;-83
2022/03/02 09:07:58;;;;;;;29.63;15.88;;;;;;;;;;5022838;28;20072;-82
2022/03/02 09:10:24;;;;;;;33.42;16.33;;;;;;;;;;5050795;28;20038;-82
2022/03/02 09:12:51;;;;;;;33.25;16.15;;;;;;;;;;5040968;28;20053;-82
2022/03/02 09:15:17;;;;;;;34.85;17.63;;;;;;;;;;5039419;28;20049;-82
2022/03/02 09:17:43;;;;;;;32.88;17.38;;;;;;;;;;5022149;28;20087;-83
2022/03/02 09:20:09;;;;;;;28.00;16.63;;;;;;;;;;5021786;28;20041;-82
2022/03/02 09:22:36;;;;;;;30.27;16.77;;;;;;;;;;5021785;28;20076;-82
2022/03/02 09:25:02;;;;;;;30.92;17.20;;;;;;;;;;5038783;28;20434;-83
2022/03/02 09:27:29;;;;;;;34.22;16.60;;;;;;;;;;5038537;28;20075;-82
2022/03/02 09:29:57;;;;;;;29.70;17.13;;;;;;;;;;5021770;28;20097;-82
2022/03/02 09:32:24;;;;;;;27.63;16.67;;;;;;;;;;5038338;28;20457;-83
2022/03/02 09:34:51;;;;;;;32.55;16.17;;;;;;;;;;5037893;28;20195;-82
2022/03/02 09:37:18;;;;;;;30.60;15.77;;;;;;;;;;5021178;28;20042;-84
2022/03/02 09:39:44;;;;;;;29.10;15.93;;;;;;;;;;5021761;28;20042;-81
2022/03/02 09:42:11;;;;;;;28.25;15.77;;;;;;;;;;5038356;28;20377;-82
2022/03/02 09:44:41;;;;;;;32.10;15.70;;;;;;;;;;5037367;28;20057;-83
2022/03/02 09:47:09;;;;;;;28.65;15.35;;;;;;;;;;5025169;28;20038;-80
2022/03/02 09:49:35;;;;;;;22.17;13.10;;;;;;;;;;5041773;28;20056;-82
2022/03/02 09:52:08;;;;;;;28.08;13.95;;;;;;;;;;5037957;28;20037;-81
2022/03/02 09:54:37;;;;;;;;;;;;;;;;;;5021677;28;20056;-82
2022/03/02 09:57:06;;;;;;;26.85;12.40;;;;;;;;;;5048592;28;19916;-83
2022/03/02 09:59:36;;;;;;;21.08;12.27;;;;;;;;;;5034159;28;20061;-81
2022/03/02 10:02:03;;;;;;;24.08;12.02;;;;;;;;;;5054097;28;20373;-82
2022/03/02 10:04:30;;;;;;;20.15;10.05;;;;;;;;;;5036904;28;20045;-83
2022/03/02 10:07:26;;;;;;;17.63;9.98;;;;;;;;;;5038238;28;20031;-82
2022/03/02 10:09:49;;;;;;;17.92;10.25;;;;;;;;;;5055729;28;20033;-83
2022/03/02 10:12:15;;;;;;;16.75;10.20;;;;;;;;;;5018683;28;20037;-82
2022/03/02 10:14:42;;;;;;;19.20;10.88;;;;;;;;;;5019761;28;20116;-82
2022/03/02 10:17:08;;;;;;;20.73;9.98;;;;;;;;;;5036186;28;20082;-80
2022/03/02 10:19:34;;;;;;;18.85;10.40;;;;;;;;;;5023799;28;20038;-82
2022/03/02 10:22:26;;;;;;;24.10;10.52;;;;;;;;;;5040751;28;20061;-82
2022/03/02 10:24:52;;;;;;;17.52;9.93;;;;;;;;;;5019115;28;20045;-82
2022/03/02 10:27:38;;;;;;;19.52;9.15;;;;;;;;;;5041484;28;20052;-82
2022/03/02 10:30:08;;;;;;;17.92;9.82;;;;;;;;;;5038194;28;20037;-82
2022/03/02 10:32:38;;;;;;;19.63;9.68;;;;;;;;;;5041995;28;20041;-82
2022/03/02 10:35:05;;;;;;;16.38;9.60;;;;;;;;;;5041032;28;20449;-82
2022/03/02 10:37:33;;;;;;;14.57;9.73;;;;;;;;;;5023753;28;20038;-81
2022/03/02 10:40:09;;;;;;;16.38;9.18;;;;;;;;;;5040357;28;20049;-82
2022/03/02 10:42:37;;;;;;;16.98;9.52;;;;;;;;;;5041083;28;20049;-82
2022/03/02 10:45:06;;;;;;;16.42;9.50;;;;;;;;;;5041683;28;20057;-82
2022/03/02 10:47:32;;;;;;;16.58;9.30;;;;;;;;;;5041950;28;20365;-82
2022/03/02 10:49:59;;;;;;;20.20;9.95;;;;;;;;;;5024890;28;20369;-83
2022/03/02 10:52:25;;;;;;;19.50;10.05;;;;;;;;;;5041969;28;20037;-82
2022/03/02 10:54:51;;;;;;;19.73;9.40;;;;;;;;;;5032427;28;20069;-83
2022/03/02 10:57:18;;;;;;;21.73;10.25;;;;;;;;;;5024942;28;20068;-82
2022/03/02 10:59:45;;;;;;;16.27;9.30;;;;;;;;;;5024135;28;20037;-83
2022/03/02 11:02:11;;;;;;;17.65;9.43;;;;;;;;;;5022981;28;20124;-82
2022/03/02 11:04:43;;;;;;;21.38;9.90;;;;;;;;;;5023127;28;20049;-82
2022/03/02 11:07:10;;;;;;;16.50;9.77;;;;;;;;;;5040680;28;20056;-82
2022/03/02 11:09:36;;;;;;;16.75;10.00;;;;;;;;;;5040392;28;20046;-82
2022/03/02 11:12:02;;;;;;;17.10;9.48;;;;;;;;;;5041713;28;20045;-83
2022/03/02 11:14:28;;;;;;;14.95;9.43;;;;;;;;;;5041841;28;20373;-83
2022/03/02 11:17:16;;;;;;;18.60;9.25;;;;;;;;;;5041727;28;20037;-83
2022/03/02 11:19:45;;;;;;;19.73;9.80;;;;;;;;;;5024864;28;20346;-83
2022/03/02 11:22:16;;;;;;;17.52;9.20;;;;;;;;;;5025626;28;20041;-83
2022/03/02 11:24:42;;;;;;;16.05;9.30;;;;;;;;;;5048718;28;20132;-83
2022/03/02 11:27:10;;;;;;;15.57;9.13;;;;;;;;;;5057021;28;20041;-83
2022/03/02 11:29:36;;;;;;;15.75;9.18;;;;;;;;;;5036679;28;20037;-83
2022/03/02 11:32:08;;;;;;;14.77;9.18;;;;;;;;;;5024657;28;20037;-83
2022/03/02 11:34:37;;;;;;;15.90;9.07;;;;;;;;;;5042440;28;20052;-83
2022/03/02 11:37:05;;;;;;;16.15;8.95;;;;;;;;;;5044149;28;20045;-83
2022/03/02 11:39:31;;;;;;;16.40;9.43;;;;;;;;;;5029232;28;20037;-83
2022/03/02 11:41:58;;;;;;;20.90;9.27;;;;;;;;;;5046921;28;20085;-83
2022/03/02 11:44:25;;;;;;;18.63;9.20;;;;;;;;;;5026006;28;20186;-83
2022/03/02 11:46:51;;;;;;;15.73;9.18;;;;;;;;;;5043731;28;20049;-83
2022/03/02 11:49:17;;;;;;;18.17;9.43;;;;;;;;;;5030247;28;20042;-83
2022/03/02 11:51:43;;;;;;;16.45;9.10;;;;;;;;;;5025669;28;20460;-83
2022/03/02 11:54:10;;;;;;;18.50;9.07;;;;;;;;;;5043174;28;20064;-82
2022/03/02 11:56:37;;;;;;;15.45;9.70;;;;;;;;;;5042539;28;20037;-83
2022/03/02 11:59:06;;;;;;;15.35;8.95;;;;;;;;;;5028199;28;20041;-81
2022/03/02 12:01:44;;;;;;;13.80;8.10;;;;;;;;;;5046170;28;20037;-81
2022/03/02 12:04:11;;;;;;;15.88;8.60;;;;;;;;;;5040875;28;20111;-81
2022/03/02 12:06:39;;;;;;;13.18;8.82;;;;;;;;;;5023165;28;20037;-82
2022/03/02 12:09:05;;;;;;;18.15;10.23;;;;;;;;;;5022919;28;20069;-81
2022/03/02 12:11:34;;;;;;;15.63;9.75;;;;;;;;;;5022758;28;20038;-81
2022/03/02 12:14:01;;;;;;;16.15;9.68;;;;;;;;;;5023014;28;20037;-82
2022/03/02 12:16:41;;;;;;;15.75;9.38;;;;;;;;;;5023134;28;20450;-82
2022/03/02 12:19:10;;;;;;;15.52;9.73;;;;;;;;;;5023589;28;20045;-81
2022/03/02 12:21:36;;;;;;;15.75;9.23;;;;;;;;;;5039933;28;20076;-82
2022/03/02 12:24:03;;;;;;;18.38;9.30;;;;;;;;;;5038874;28;20037;-83
2022/03/02 12:26:30;;;;;;;16.08;9.20;;;;;;;;;;5023071;28;20372;-81
2022/03/02 12:28:57;;;;;;;15.98;9.55;;;;;;;;;;5042302;28;20037;-82
2022/03/02 12:31:32;;;;;;;15.82;9.10;;;;;;;;;;5027909;28;20038;-82
2022/03/02 12:34:11;;;;;;;16.90;8.80;;;;;;;;;;5029281;28;20052;-83
2022/03/02 12:36:37;;;;;;;15.50;9.57;;;;;;;;;;5042723;28;20476;-81
2022/03/02 12:39:03;;;;;;;14.80;9.68;;;;;;;;;;5050046;28;20034;-82
2022/03/02 12:41:29;;;;;;;16.05;9.20;;;;;;;;;;5027744;28;20034;-83
2022/03/02 12:43:55;;;;;;;17.55;9.90;;;;;;;;;;5046237;28;20056;-83
2022/03/02 12:46:21;;;;;;;17.33;10.48;;;;;;;;;;5024643;28;20038;-83
2022/03/02 12:48:47;;;;;;;17.92;9.38;;;;;;;;;;5024890;28;20373;-83
2022/03/02 12:51:14;;;;;;;19.27;10.15;;;;;;;;;;5039733;28;20064;-83
2022/03/02 12:53:40;;;;;;;17.60;10.23;;;;;;;;;;5024409;28;20049;-82
2022/03/02 12:56:06;;;;;;;16.98;10.05;;;;;;;;;;5023829;28;20064;-81
2022/03/02 12:58:32;;;;;;;16.90;10.45;;;;;;;;;;5025107;28;20041;-81
2022/03/02 13:00:58;;;;;;;18.63;9.82;;;;;;;;;;5040848;28;20068;-82
2022/03/02 13:03:27;;;;;;;18.15;9.88;;;;;;;;;;5043020;28;20038;-83
2022/03/02 13:05:55;;;;;;;17.67;9.57;;;;;;;;;;5048236;28;20052;-83
2022/03/02 13:08:27;;;;;;;18.30;9.43;;;;;;;;;;5044937;28;20096;-82
2022/03/02 13:10:53;;;;;;;17.75;9.48;;;;;;;;;;5041516;28;20101;-82
2022/03/02 13:13:36;;;;;;;18.58;8.90;;;;;;;;;;5024185;28;20042;-81
2022/03/02 13:16:17;;;;;;;15.27;9.70;;;;;;;;;;5043361;28;20124;-82
2022/03/02 13:18:43;;;;;;;14.45;8.90;;;;;;;;;;5040417;28;20065;-83
2022/03/02 13:21:16;;;;;;;14.77;8.90;;;;;;;;;;5023925;28;20377;-80
2022/03/02 13:23:59;;;;;;;17.05;9.82;;;;;;;;;;5041712;28;20081;-81
2022/03/02 13:26:26;;;;;;;15.90;9.07;;;;;;;;;;5038641;28;20505;-80
2022/03/02 13:29:03;;;;;;;15.77;9.18;;;;;;;;;;5023569;28;20037;-81
2022/03/02 13:31:29;;;;;;;13.60;8.85;;;;;;;;;;5041505;28;20045;-81
2022/03/02 13:33:55;;;;;;;15.02;9.13;;;;;;;;;;5022226;28;20037;-80
2022/03/02 13:36:36;;;;;;;17.52;9.38;;;;;;;;;;5039446;28;20056;-80
2022/03/02 13:39:05;;;;;;;15.23;9.10;;;;;;;;;;5040564;28;20038;-80
2022/03/02 13:41:51;;;;;;;15.27;9.20;;;;;;;;;;5038740;28;20183;-79
2022/03/02 13:44:35;;;;;;;15.80;9.45;;;;;;;;;;5032206;28;20119;-79
2022/03/02 13:47:07;;;;;;;15.48;9.48;;;;;;;;;;5078957;28;20037;-81
2022/03/02 13:49:49;;;;;;;25.23;10.38;;;;;;;;;;5080225;28;20081;-79
2022/03/02 13:52:22;;;;;;;18.85;9.40;;;;;;;;;;5061845;28;20054;-80
2022/03/02 13:54:48;;;;;;;18.50;10.00;;;;;;;;;;5044914;28;20043;-80
2022/03/02 13:57:18;;;;;;;16.90;9.85;;;;;;;;;;5044979;28;20051;-80
2022/03/02 13:59:44;;;;;;;15.80;9.77;;;;;;;;;;5045421;28;20039;-79
2022/03/02 14:02:10;;;;;;;16.02;9.60;;;;;;;;;;5049469;28;20028;-79
2022/03/02 14:04:39;;;;;;;14.60;9.52;;;;;;;;;;5049747;28;20036;-80
2022/03/02 14:07:06;;;;;;;15.65;9.32;;;;;;;;;;5050983;28;20456;-80
2022/03/02 14:09:32;;;;;;;15.10;9.75;;;;;;;;;;5082257;28;20044;-80
2022/03/02 14:11:58;;;;;;;12.93;8.80;;;;;;;;;;5049306;28;20047;-79
2022/03/02 14:14:24;;;;;;;18.90;9.00;;;;;;;;;;5066497;28;20313;-80
2022/03/02 14:16:51;;;;;;;17.13;9.98;;;;;;;;;;5065723;28;20036;-80
2022/03/02 14:19:17;;;;;;;17.85;11.23;;;;;;;;;;5049132;28;20028;-80
2022/03/02 14:21:59;;;;;;;19.05;11.02;;;;;;;;;;5066038;28;20076;-80